createdAt,value
2018-06-27T00:01:21.683Z,34.90
2018-06-27T00:03:57.138Z,34.67
2018-06-27T00:06:32.779Z,32.60
2018-06-27T00:09:08.726Z,35.13
2018-06-27T00:11:44.146Z,28.75
2018-06-27T00:14:19.718Z,32.30
2018-06-27T00:16:55.479Z,30.50
2018-06-27T00:19:31.366Z,35.68
2018-06-27T00:22:06.989Z,41.10
2018-06-27T00:24:42.371Z,30.23
2018-06-27T00:27:17.978Z,34.60
2018-06-27T00:29:53.552Z,52.98
2018-06-27T00:32:29.116Z,30.97
2018-06-27T00:35:04.352Z,41.23
2018-06-27T00:37:39.871Z,37.20
2018-06-27T00:40:15.201Z,30.95
2018-06-27T00:42:50.980Z,25.23
2018-06-27T00:45:26.259Z,36.93
2018-06-27T00:48:01.767Z,36.68
2018-06-27T00:50:37.279Z,42.45
2018-06-27T00:53:13.251Z,30.30
2018-06-27T00:55:48.614Z,35.38
2018-06-27T00:58:24.349Z,40.10
2018-06-27T01:00:59.595Z,40.48
2018-06-27T01:03:35.028Z,38.48
2018-06-27T01:06:10.767Z,41.68
2018-06-27T01:08:46.438Z,38.30
2018-06-27T01:11:21.972Z,42.65
2018-06-27T01:13:57.527Z,57.60
2018-06-27T01:16:32.995Z,33.05
2018-06-27T01:19:08.640Z,42.95
2018-06-27T01:21:44.091Z,40.65
2018-06-27T01:24:19.723Z,50.65
2018-06-27T01:26:54.960Z,41.35
2018-06-27T01:29:30.410Z,39.33
2018-06-27T01:32:05.763Z,39.10
2018-06-27T01:34:41.506Z,36.60
2018-06-27T01:37:16.998Z,47.00
2018-06-27T01:39:52.596Z,41.55
2018-06-27T01:42:28.031Z,44.83
2018-06-27T01:45:03.537Z,39.30
2018-06-27T01:47:39.034Z,40.20
2018-06-27T01:50:14.778Z,36.30
2018-06-27T01:52:50.730Z,36.13
2018-06-27T01:55:26.330Z,39.27
2018-06-27T01:58:01.655Z,48.10
2018-06-27T02:00:37.278Z,46.85
2018-06-27T02:03:12.640Z,44.80
2018-06-27T02:05:48.273Z,43.25
2018-06-27T02:08:23.612Z,36.95
2018-06-27T02:10:59.286Z,39.45
2018-06-27T02:13:34.574Z,58.95
2018-06-27T02:16:10.256Z,42.60
2018-06-27T02:18:45.543Z,41.10
2018-06-27T02:21:21.216Z,43.83
2018-06-27T02:23:56.534Z,46.80
2018-06-27T02:26:32.219Z,38.33
2018-06-27T02:29:07.558Z,46.08
2018-06-27T02:31:42.931Z,46.13
2018-06-27T02:34:18.378Z,40.92
2018-06-27T02:36:54.023Z,45.30
2018-06-27T02:39:29.485Z,48.63
2018-06-27T02:42:05.224Z,37.63
2018-06-27T02:44:40.681Z,45.08
2018-06-27T02:47:16.429Z,46.95
2018-06-27T02:49:51.927Z,36.58
2018-06-27T02:52:28.031Z,36.45
2018-06-27T02:55:03.342Z,39.80
2018-06-27T02:57:39.015Z,43.85
2018-06-27T03:00:17.201Z,36.17
2018-06-27T03:02:52.671Z,39.33
2018-06-27T03:05:28.042Z,41.60
2018-06-27T03:08:03.577Z,37.05
2018-06-27T03:10:39.050Z,35.92
2018-06-27T03:13:14.555Z,33.92
2018-06-27T03:15:50.034Z,40.63
2018-06-27T03:18:25.543Z,32.65
2018-06-27T03:21:01.064Z,33.88
2018-06-27T03:23:36.686Z,38.10
2018-06-27T03:26:12.099Z,31.97
2018-06-27T03:28:47.625Z,34.05
2018-06-27T03:31:22.691Z,33.18
2018-06-27T03:33:58.113Z,41.95
2018-06-27T03:36:33.579Z,33.30
2018-06-27T03:39:09.324Z,27.07
2018-06-27T03:41:44.750Z,32.93
2018-06-27T03:44:20.290Z,30.32
2018-06-27T03:46:55.626Z,35.13
2018-06-27T03:49:31.190Z,30.25
2018-06-27T03:52:06.738Z,29.42
2018-06-27T03:54:42.805Z,32.03
2018-06-27T03:57:18.246Z,31.77
2018-06-27T03:59:53.790Z,28.70
2018-06-27T04:02:28.974Z,30.12
2018-06-27T04:05:04.578Z,31.77
2018-06-27T04:07:39.842Z,35.50
2018-06-27T04:10:15.490Z,34.23
2018-06-27T04:12:50.958Z,33.83
2018-06-27T04:15:26.459Z,31.62
2018-06-27T04:18:01.654Z,33.13
2018-06-27T04:20:37.154Z,29.00
2018-06-27T04:23:12.617Z,32.90
2018-06-27T04:25:48.346Z,28.67
2018-06-27T04:28:23.902Z,31.55
2018-06-27T04:30:59.455Z,27.37
2018-06-27T04:33:34.891Z,29.98
2018-06-27T04:36:10.382Z,25.30
2018-06-27T04:38:45.776Z,28.27
2018-06-27T04:41:21.222Z,26.07
2018-06-27T04:43:56.574Z,36.10
2018-06-27T04:46:32.316Z,30.48
2018-06-27T04:49:07.870Z,37.23
2018-06-27T04:51:43.126Z,34.73
2018-06-27T04:54:18.768Z,28.17
2018-06-27T04:56:54.617Z,22.73
2018-06-27T04:59:29.876Z,26.17
2018-06-27T05:02:05.497Z,28.35
2018-06-27T05:04:40.967Z,35.85
2018-06-27T05:07:16.591Z,33.02
2018-06-27T05:09:52.110Z,27.20
2018-06-27T05:12:27.646Z,25.17
2018-06-27T05:15:03.166Z,28.50
2018-06-27T05:17:38.681Z,20.75
2018-06-27T05:20:14.325Z,27.55
2018-06-27T05:22:50.003Z,28.02
2018-06-27T05:25:25.435Z,27.35
2018-06-27T05:28:00.983Z,25.85
2018-06-27T05:30:36.418Z,29.37
2018-06-27T05:33:11.862Z,21.65
2018-06-27T05:35:47.370Z,27.07
2018-06-27T05:38:22.963Z,20.80
2018-06-27T05:40:58.443Z,27.27
2018-06-27T05:43:34.039Z,34.63
2018-06-27T05:46:09.279Z,25.00
2018-06-27T05:48:45.347Z,27.70
2018-06-27T05:51:20.997Z,27.00
2018-06-27T05:53:57.074Z,27.67
2018-06-27T05:56:32.706Z,23.73
2018-06-27T05:59:08.371Z,30.40
2018-06-27T06:01:43.978Z,21.60
2018-06-27T06:04:19.792Z,23.90
2018-06-27T06:06:55.251Z,21.90
2018-06-27T06:09:30.718Z,21.30
2018-06-27T06:12:06.158Z,25.13
2018-06-27T06:14:41.661Z,20.10
2018-06-27T06:17:17.077Z,20.73
2018-06-27T06:19:52.679Z,22.00
2018-06-27T06:22:27.977Z,17.60
2018-06-27T06:25:03.650Z,24.20
2018-06-27T06:27:38.866Z,12.30
2018-06-27T06:30:14.218Z,19.47
2018-06-27T06:32:49.695Z,16.77
2018-06-27T06:35:25.418Z,18.93
2018-06-27T06:38:00.666Z,15.60
2018-06-27T06:40:36.122Z,17.30
2018-06-27T06:43:11.602Z,11.67
2018-06-27T06:45:47.006Z,15.80
2018-06-27T06:48:22.212Z,10.43
2018-06-27T06:50:58.094Z,9.07
2018-06-27T06:53:33.575Z,9.70
2018-06-27T06:56:09.107Z,16.77
2018-06-27T06:58:44.610Z,13.30
2018-06-27T07:01:20.099Z,11.20
2018-06-27T07:03:56.094Z,7.40
2018-06-27T07:06:31.796Z,9.87
2018-06-27T07:09:10.750Z,13.27
2018-06-27T07:11:46.467Z,7.90
2018-06-27T07:14:21.829Z,6.57
2018-06-27T07:16:57.991Z,8.10
2018-06-27T07:19:33.375Z,8.07
2018-06-27T07:22:08.742Z,7.13
2018-06-27T07:24:43.966Z,7.57
2018-06-27T07:27:19.726Z,7.47
2018-06-27T07:29:54.904Z,7.27
2018-06-27T07:32:30.460Z,11.43
2018-06-27T07:35:05.740Z,30.60
2018-06-27T07:37:41.171Z,4.77
2018-06-27T07:40:16.352Z,5.10
2018-06-27T07:42:51.930Z,5.00
2018-06-27T07:45:27.314Z,4.90
2018-06-27T07:48:02.925Z,3.53
2018-06-27T07:50:38.231Z,5.87
2018-06-27T07:53:13.998Z,3.60
2018-06-27T07:55:49.248Z,5.37
2018-06-27T07:58:24.890Z,3.23
2018-06-27T08:01:00.410Z,4.10
2018-06-27T08:03:35.990Z,6.90
2018-06-27T08:06:11.551Z,5.70
2018-06-27T08:08:47.284Z,8.33
2018-06-27T08:11:22.774Z,6.97
2018-06-27T08:13:58.379Z,3.17
2018-06-27T08:16:33.626Z,3.13
2018-06-27T08:19:09.176Z,2.73
2018-06-27T08:21:44.663Z,2.30
2018-06-27T08:24:20.463Z,2.67
2018-06-27T08:26:55.973Z,5.13
2018-06-27T08:29:31.670Z,4.40
2018-06-27T08:32:07.139Z,6.83
2018-06-27T08:34:42.760Z,5.20
2018-06-27T08:37:18.196Z,3.80
2018-06-27T08:39:53.652Z,6.27
2018-06-27T08:42:29.142Z,5.43
2018-06-27T08:45:04.743Z,2.90
2018-06-27T08:47:40.170Z,5.87
2018-06-27T08:50:15.546Z,2.40
2018-06-27T08:52:51.571Z,2.53
2018-06-27T08:55:27.130Z,4.03
2018-06-27T08:58:02.596Z,5.27
2018-06-27T09:00:41.040Z,13.20
2018-06-27T09:03:16.517Z,2.40
2018-06-27T09:05:52.092Z,5.10
2018-06-27T09:08:27.630Z,17.20
2018-06-27T09:11:02.991Z,23.47
2018-06-27T09:13:38.436Z,4.77
2018-06-27T09:16:14.079Z,6.60
2018-06-27T09:18:49.295Z,5.80
2018-06-27T09:21:25.173Z,2.77
2018-06-27T09:24:00.703Z,4.70
2018-06-27T09:26:35.781Z,3.20
2018-06-27T09:29:11.159Z,2.97
2018-06-27T09:31:46.742Z,3.13
2018-06-27T09:34:22.043Z,3.37
2018-06-27T09:36:57.742Z,6.90
2018-06-27T09:39:33.143Z,4.33
2018-06-27T09:42:08.728Z,1.90
2018-06-27T09:44:44.210Z,4.23
2018-06-27T09:47:19.520Z,5.80
2018-06-27T09:49:54.823Z,3.60
2018-06-27T09:52:30.406Z,3.53
2018-06-27T09:55:06.163Z,9.00
2018-06-27T09:57:41.811Z,5.93
2018-06-27T10:00:22.611Z,9.83
2018-06-27T10:02:58.127Z,8.27
2018-06-27T10:05:33.450Z,5.53
2018-06-27T10:08:09.020Z,3.77
2018-06-27T10:10:44.544Z,2.40
2018-06-27T10:13:20.015Z,3.23
2018-06-27T10:15:55.334Z,2.53
2018-06-27T10:18:30.895Z,9.63
2018-06-27T10:21:06.199Z,3.50
2018-06-27T10:23:41.886Z,2.40
2018-06-27T10:26:17.219Z,8.70
2018-06-27T10:28:52.785Z,3.40
2018-06-27T10:31:28.274Z,5.67
2018-06-27T10:34:03.880Z,4.20
2018-06-27T10:36:39.403Z,7.03
2018-06-27T10:39:14.795Z,7.53
2018-06-27T10:41:50.094Z,4.83
2018-06-27T10:44:25.553Z,5.53
2018-06-27T10:47:00.955Z,3.90
2018-06-27T10:49:36.446Z,4.23
2018-06-27T10:52:11.760Z,2.97
2018-06-27T10:54:53.482Z,1.97
2018-06-27T10:57:28.900Z,2.90
2018-06-27T11:00:04.680Z,5.80
2018-06-27T11:02:39.986Z,2.33
2018-06-27T11:05:15.641Z,4.33
2018-06-27T11:07:51.110Z,10.57
2018-06-27T11:10:26.458Z,1.97
2018-06-27T11:13:01.887Z,8.63
2018-06-27T11:15:37.311Z,3.13
2018-06-27T11:18:12.548Z,3.00
2018-06-27T11:20:48.287Z,3.93
2018-06-27T11:23:23.635Z,7.77
2018-06-27T11:25:59.230Z,2.03
2018-06-27T11:28:34.680Z,2.10
2018-06-27T11:31:10.218Z,5.10
2018-06-27T11:33:45.733Z,2.50
2018-06-27T11:36:21.216Z,5.40
2018-06-27T11:38:56.527Z,2.73
2018-06-27T11:41:32.102Z,4.50
2018-06-27T11:44:07.434Z,2.53
2018-06-27T11:46:42.734Z,5.40
2018-06-27T11:49:18.074Z,2.87
2018-06-27T11:51:53.578Z,3.37
2018-06-27T11:54:29.015Z,2.67
2018-06-27T11:57:04.674Z,5.13
2018-06-27T11:59:40.194Z,2.70
2018-06-27T12:02:15.662Z,4.60
2018-06-27T12:04:51.043Z,4.03
2018-06-27T12:07:26.663Z,2.03
2018-06-27T12:10:02.395Z,2.90
2018-06-27T12:12:37.856Z,2.70
2018-06-27T12:15:13.323Z,2.30
2018-06-27T12:17:48.954Z,2.23
2018-06-27T12:20:24.210Z,5.40
2018-06-27T12:22:59.742Z,2.93
2018-06-27T12:25:35.168Z,4.77
2018-06-27T12:28:10.734Z,2.57
2018-06-27T12:30:46.199Z,2.50
2018-06-27T12:33:21.722Z,3.60
2018-06-27T12:35:57.043Z,2.70
2018-06-27T12:38:32.652Z,2.40
2018-06-27T12:41:07.870Z,4.90
2018-06-27T12:43:43.602Z,2.00
2018-06-27T12:46:18.963Z,2.27
2018-06-27T12:48:54.505Z,2.30
2018-06-27T12:51:29.698Z,3.20
2018-06-27T12:54:11.887Z,2.47
2018-06-27T12:56:47.412Z,7.00
2018-06-27T12:59:23.040Z,2.27
2018-06-27T13:01:58.506Z,4.00
2018-06-27T13:04:34.255Z,2.20
2018-06-27T13:07:09.697Z,3.57
2018-06-27T13:09:45.328Z,4.07
2018-06-27T13:12:20.610Z,2.87
2018-06-27T13:14:56.118Z,2.57
2018-06-27T13:17:31.303Z,8.20
2018-06-27T13:20:07.207Z,2.10
2018-06-27T13:22:42.507Z,7.40
2018-06-27T13:25:18.024Z,2.17
2018-06-27T13:27:53.986Z,2.30
2018-06-27T13:30:29.603Z,6.33
2018-06-27T13:33:05.031Z,2.27
2018-06-27T13:35:40.708Z,3.00
2018-06-27T13:38:16.178Z,3.20
2018-06-27T13:40:51.796Z,9.60
2018-06-27T13:43:27.107Z,3.33
2018-06-27T13:46:02.478Z,4.03
2018-06-27T13:48:37.918Z,3.33
2018-06-27T13:51:13.599Z,5.67
2018-06-27T13:53:49.170Z,3.03
2018-06-27T13:56:24.770Z,1.87
2018-06-27T13:59:00.275Z,3.60
2018-06-27T14:01:36.077Z,2.03
2018-06-27T14:04:11.595Z,2.80
2018-06-27T14:06:47.027Z,6.77
2018-06-27T14:09:22.623Z,6.73
2018-06-27T14:11:58.162Z,4.27
2018-06-27T14:14:33.503Z,3.70
2018-06-27T14:17:09.052Z,3.27
2018-06-27T14:19:44.463Z,2.30
2018-06-27T14:22:19.944Z,4.87
2018-06-27T14:24:55.249Z,16.67
2018-06-27T14:27:30.735Z,2.67
2018-06-27T14:30:06.214Z,5.63
2018-06-27T14:32:41.724Z,2.40
2018-06-27T14:35:17.191Z,3.07
2018-06-27T14:37:52.730Z,3.00
2018-06-27T14:40:28.089Z,2.50
2018-06-27T14:43:03.714Z,2.40
2018-06-27T14:45:39.155Z,4.73
2018-06-27T14:48:14.506Z,2.53
2018-06-27T14:50:49.956Z,3.83
2018-06-27T14:53:25.802Z,4.70
2018-06-27T14:56:01.315Z,2.13
2018-06-27T14:58:36.992Z,2.57
2018-06-27T15:01:12.419Z,5.33
2018-06-27T15:03:47.901Z,3.13
2018-06-27T15:06:23.415Z,5.13
2018-06-27T15:08:59.087Z,7.13
2018-06-27T15:11:34.503Z,7.33
2018-06-27T15:14:10.178Z,3.80
2018-06-27T15:16:45.692Z,3.93
2018-06-27T15:19:21.176Z,7.90
2018-06-27T15:21:56.663Z,2.47
2018-06-27T15:24:32.311Z,2.50
2018-06-27T15:27:07.732Z,5.50
2018-06-27T15:29:43.368Z,2.07
2018-06-27T15:32:18.736Z,8.00
2018-06-27T15:34:54.149Z,9.10
2018-06-27T15:37:29.627Z,3.63
2018-06-27T15:40:05.256Z,3.93
2018-06-27T15:42:40.763Z,3.80
2018-06-27T15:45:16.441Z,5.40
2018-06-27T15:47:51.939Z,5.53
2018-06-27T15:50:27.434Z,2.70
2018-06-27T15:53:02.788Z,3.30
2018-06-27T15:55:38.662Z,22.37
2018-06-27T15:58:14.138Z,2.37
2018-06-27T16:00:49.835Z,5.23
2018-06-27T16:03:25.139Z,4.23
2018-06-27T16:06:00.710Z,6.60
2018-06-27T16:08:36.255Z,4.47
2018-06-27T16:11:11.902Z,5.37
2018-06-27T16:13:47.326Z,6.93
2018-06-27T16:16:23.007Z,7.80
2018-06-27T16:18:58.398Z,6.27
2018-06-27T16:21:33.900Z,6.27
2018-06-27T16:24:09.298Z,2.40
2018-06-27T16:26:44.893Z,5.43
2018-06-27T16:29:20.359Z,4.17
2018-06-27T16:31:55.883Z,3.63
2018-06-27T16:34:31.255Z,5.10
2018-06-27T16:37:07.107Z,4.63
2018-06-27T16:39:42.600Z,11.80
2018-06-27T16:42:17.966Z,2.40
2018-06-27T16:44:53.303Z,8.30
2018-06-27T16:47:28.760Z,3.53
2018-06-27T16:50:05.110Z,3.10
2018-06-27T16:52:40.778Z,7.50
2018-06-27T16:55:16.437Z,5.53
2018-06-27T16:57:52.175Z,5.53
2018-06-27T17:00:27.638Z,3.10
2018-06-27T17:03:03.176Z,5.60
2018-06-27T17:05:38.622Z,8.17
2018-06-27T17:08:14.059Z,2.80
2018-06-27T17:10:49.550Z,2.60
2018-06-27T17:13:25.177Z,5.53
2018-06-27T17:16:00.438Z,5.03
2018-06-27T17:18:35.839Z,7.83
2018-06-27T17:21:11.323Z,3.47
2018-06-27T17:23:47.546Z,5.60
2018-06-27T17:26:23.038Z,7.50
2018-06-27T17:28:58.563Z,5.93
2018-06-27T17:31:33.945Z,2.50
2018-06-27T17:34:09.431Z,3.63
2018-06-27T17:36:44.682Z,2.60
2018-06-27T17:39:20.045Z,3.73
2018-06-27T17:41:55.406Z,3.93
2018-06-27T17:44:37.428Z,9.83
2018-06-27T17:47:12.920Z,4.40
2018-06-27T17:49:48.557Z,2.93
2018-06-27T17:52:24.230Z,3.80
2018-06-27T17:55:00.956Z,6.13
2018-06-27T17:57:36.471Z,6.13
2018-06-27T18:00:12.279Z,3.17
2018-06-27T18:02:47.690Z,3.30
2018-06-27T18:05:23.271Z,2.10
2018-06-27T18:07:58.701Z,2.37
2018-06-27T18:10:34.351Z,4.27
2018-06-27T18:13:09.838Z,10.00
2018-06-27T18:15:45.971Z,7.43
2018-06-27T18:18:21.288Z,2.70
2018-06-27T18:20:56.874Z,3.03
2018-06-27T18:23:32.211Z,5.00
2018-06-27T18:26:07.865Z,2.30
2018-06-27T18:28:43.183Z,6.43
2018-06-27T18:31:19.001Z,3.40
2018-06-27T18:33:54.583Z,4.00
2018-06-27T18:36:30.073Z,12.23
2018-06-27T18:39:08.894Z,6.80
2018-06-27T18:41:44.623Z,2.90
2018-06-27T18:44:20.099Z,3.67
2018-06-27T18:46:55.819Z,7.17
2018-06-27T18:49:31.070Z,5.03
2018-06-27T18:52:06.837Z,3.20
2018-06-27T18:54:42.563Z,5.47
2018-06-27T18:57:18.136Z,4.03
2018-06-27T18:59:53.527Z,10.10
2018-06-27T19:02:29.102Z,3.13
2018-06-27T19:05:05.135Z,7.43
2018-06-27T19:07:40.815Z,18.70
2018-06-27T19:10:16.175Z,7.17
2018-06-27T19:12:51.713Z,3.03
2018-06-27T19:15:27.206Z,2.30
2018-06-27T19:18:02.794Z,2.33
2018-06-27T19:20:38.092Z,5.53
2018-06-27T19:23:13.791Z,4.00
2018-06-27T19:25:49.362Z,2.60
2018-06-27T19:28:24.990Z,14.23
2018-06-27T19:31:00.466Z,4.13
2018-06-27T19:33:36.103Z,7.70
2018-06-27T19:36:11.420Z,3.43
2018-06-27T19:38:46.975Z,7.37
2018-06-27T19:41:22.399Z,6.57
2018-06-27T19:43:58.166Z,5.23
2018-06-27T19:46:33.859Z,6.87
2018-06-27T19:49:09.474Z,4.63
2018-06-27T19:51:44.956Z,6.13
2018-06-27T19:54:27.035Z,12.63
2018-06-27T19:57:02.338Z,3.30
2018-06-27T19:59:37.908Z,12.70
2018-06-27T20:02:13.362Z,7.53
2018-06-27T20:04:48.899Z,8.27
2018-06-27T20:07:24.598Z,9.77
2018-06-27T20:09:59.691Z,12.00
2018-06-27T20:12:35.149Z,17.20
2018-06-27T20:15:10.852Z,6.13
2018-06-27T20:17:46.212Z,7.23
2018-06-27T20:20:21.670Z,4.80
2018-06-27T20:22:57.414Z,11.63
2018-06-27T20:25:35.840Z,4.20
2018-06-27T20:28:11.230Z,14.70
2018-06-27T20:30:46.939Z,3.67
2018-06-27T20:33:22.356Z,8.40
2018-06-27T20:35:57.830Z,2.47
2018-06-27T20:38:33.275Z,6.20
2018-06-27T20:41:08.924Z,4.00
2018-06-27T20:43:44.441Z,6.60
2018-06-27T20:46:19.648Z,2.80
2018-06-27T20:48:54.940Z,4.90
2018-06-27T20:51:30.810Z,3.50
2018-06-27T20:54:06.679Z,6.50
2018-06-27T20:56:42.308Z,5.30
2018-06-27T20:59:17.752Z,9.40
2018-06-27T21:01:53.404Z,3.40
2018-06-27T21:04:28.626Z,10.53
2018-06-27T21:07:03.989Z,7.17
2018-06-27T21:09:39.354Z,6.10
2018-06-27T21:12:14.898Z,6.25
2018-06-27T21:14:49.947Z,4.80
2018-06-27T21:17:25.463Z,4.23
2018-06-27T21:20:00.983Z,6.22
2018-06-27T21:22:36.763Z,5.30
2018-06-27T21:25:12.267Z,3.55
2018-06-27T21:27:47.854Z,3.30
2018-06-27T21:30:23.193Z,4.17
2018-06-27T21:32:58.783Z,3.98
2018-06-27T21:35:34.345Z,5.75
2018-06-27T21:38:09.907Z,3.40
2018-06-27T21:40:45.375Z,5.17
2018-06-27T21:43:21.031Z,4.35
2018-06-27T21:45:56.434Z,3.57
2018-06-27T21:48:32.231Z,3.13
2018-06-27T21:51:07.619Z,5.03
2018-06-27T21:53:43.435Z,3.98
2018-06-27T21:56:18.770Z,4.53
2018-06-27T21:58:54.427Z,5.08
2018-06-27T22:01:29.934Z,3.77
2018-06-27T22:04:05.519Z,5.42
2018-06-27T22:06:41.050Z,2.70
2018-06-27T22:09:16.575Z,2.85
2018-06-27T22:11:51.965Z,7.90
2018-06-27T22:14:27.611Z,3.77
2018-06-27T22:17:02.860Z,3.70
2018-06-27T22:19:38.512Z,3.08
2018-06-27T22:22:13.920Z,3.50
2018-06-27T22:24:49.597Z,2.87
2018-06-27T22:27:24.990Z,3.72
2018-06-27T22:30:00.594Z,5.08
2018-06-27T22:32:35.902Z,4.42
2018-06-27T22:35:11.277Z,3.55
2018-06-27T22:37:46.531Z,2.95
2018-06-27T22:40:22.163Z,3.72
2018-06-27T22:42:57.682Z,3.00
2018-06-27T22:45:33.251Z,2.60
2018-06-27T22:48:08.619Z,2.58
2018-06-27T22:50:44.247Z,3.20
2018-06-27T22:53:19.787Z,3.70
2018-06-27T22:55:55.754Z,2.87
2018-06-27T22:58:31.113Z,3.00
2018-06-27T23:01:06.564Z,3.20
2018-06-27T23:03:41.858Z,2.95
2018-06-27T23:06:17.290Z,4.35
2018-06-27T23:08:52.733Z,3.17
2018-06-27T23:11:28.419Z,2.85
2018-06-27T23:14:03.891Z,2.17
2018-06-27T23:16:39.618Z,2.98
2018-06-27T23:19:15.021Z,2.30
2018-06-27T23:21:50.731Z,2.40
2018-06-27T23:24:26.103Z,2.22
2018-06-27T23:27:01.822Z,2.58
2018-06-27T23:29:37.348Z,1.95
2018-06-27T23:32:12.995Z,2.77
2018-06-27T23:34:48.491Z,6.60
2018-06-27T23:37:24.202Z,2.77
2018-06-27T23:39:59.540Z,11.15
2018-06-27T23:42:34.697Z,2.60
2018-06-27T23:45:09.991Z,2.15
2018-06-27T23:47:45.481Z,2.10
2018-06-27T23:50:21.016Z,2.60
2018-06-27T23:52:56.783Z,3.00
2018-06-27T23:55:32.336Z,2.70
2018-06-27T23:58:07.862Z,2.25
